createdAt,value
2019-05-23T00:00:04.437Z,1011.8
2019-05-23T00:01:06.576Z,1011.8
2019-05-23T00:02:08.698Z,1011.8
2019-05-23T00:03:10.837Z,1011.8
2019-05-23T00:04:13.682Z,1011.8
2019-05-23T00:05:16.144Z,1011.8
2019-05-23T00:06:18.525Z,1011.8
2019-05-23T00:07:20.990Z,1011.8
2019-05-23T00:08:23.066Z,1011.8
2019-05-23T00:09:25.220Z,1011.8
2019-05-23T00:10:27.571Z,1011.8
2019-05-23T00:11:29.993Z,1011.7
2019-05-23T00:12:32.533Z,1011.8
2019-05-23T00:13:35.005Z,1011.8
2019-05-23T00:14:37.041Z,1011.8
2019-05-23T00:15:39.206Z,1011.8
2019-05-23T00:16:41.669Z,1011.8
2019-05-23T00:17:44.419Z,1011.8
2019-05-23T00:18:46.505Z,1011.8
2019-05-23T00:19:48.926Z,1011.8
2019-05-23T00:20:51.330Z,1011.8
2019-05-23T00:21:53.725Z,1011.8
2019-05-23T00:22:56.618Z,1011.8
2019-05-23T00:23:59.350Z,1011.8
2019-05-23T00:25:02.130Z,1011.8
2019-05-23T00:26:04.202Z,1011.8
2019-05-23T00:27:06.971Z,1011.8
2019-05-23T00:28:09.061Z,1011.8
2019-05-23T00:29:11.453Z,1011.8
2019-05-23T00:30:13.580Z,1011.8
2019-05-23T00:31:15.659Z,1011.8
2019-05-23T00:32:17.737Z,1011.8
2019-05-23T00:33:20.193Z,1011.8
2019-05-23T00:34:22.276Z,1011.8
2019-05-23T00:35:24.416Z,1011.8
2019-05-23T00:36:26.731Z,1011.8
2019-05-23T00:37:29.185Z,1011.8
2019-05-23T00:38:31.989Z,1011.8
2019-05-23T00:39:34.076Z,1011.8
2019-05-23T00:40:36.490Z,1011.8
2019-05-23T00:41:38.946Z,1011.8
2019-05-23T00:42:41.011Z,1011.8
2019-05-23T00:43:43.094Z,1011.8
2019-05-23T00:44:45.270Z,1011.8
2019-05-23T00:45:47.367Z,1011.8
2019-05-23T00:46:49.395Z,1011.8
2019-05-23T00:47:51.520Z,1011.8
2019-05-23T00:48:53.605Z,1011.8
2019-05-23T00:49:55.835Z,1011.8
2019-05-23T00:50:57.970Z,1011.8
2019-05-23T00:52:00.636Z,1011.8
2019-05-23T00:53:02.782Z,1011.7
2019-05-23T00:54:05.453Z,1011.7
2019-05-23T00:55:09.080Z,1011.8
2019-05-23T00:56:11.431Z,1011.8
2019-05-23T00:57:13.551Z,1011.8
2019-05-23T00:58:16.088Z,1011.8
2019-05-23T00:59:27.820Z,1011.8
2019-05-23T01:00:30.042Z,1011.8
2019-05-23T01:01:32.549Z,1011.8
2019-05-23T01:02:34.758Z,1011.8
2019-05-23T01:03:36.834Z,1011.8
2019-05-23T01:04:38.922Z,1011.8
2019-05-23T01:05:41.296Z,1011.8
2019-05-23T01:06:43.776Z,1011.8
2019-05-23T01:07:46.393Z,1011.7
2019-05-23T01:08:48.491Z,1011.8
2019-05-23T01:09:51.293Z,1011.8
2019-05-23T01:10:53.373Z,1011.8
2019-05-23T01:11:55.453Z,1011.8
2019-05-23T01:12:57.587Z,1011.8
2019-05-23T01:14:00.092Z,1011.8
2019-05-23T01:15:03.189Z,1011.8
2019-05-23T01:16:05.879Z,1011.8
2019-05-23T01:17:08.024Z,1011.8
2019-05-23T01:18:10.392Z,1011.8
2019-05-23T01:19:12.469Z,1011.8
2019-05-23T01:20:14.902Z,1011.8
2019-05-23T01:21:16.988Z,1011.8
2019-05-23T01:22:19.371Z,1011.8
2019-05-23T01:23:21.503Z,1011.8
2019-05-23T01:24:23.932Z,1011.8
2019-05-23T01:25:26.074Z,1011.8
2019-05-23T01:26:28.149Z,1011.8
2019-05-23T01:27:30.246Z,1011.8
2019-05-23T01:28:33.085Z,1011.8
2019-05-23T01:29:38.804Z,1011.8
2019-05-23T01:30:40.953Z,1011.8
2019-05-23T01:31:43.015Z,1011.8
2019-05-23T01:32:45.558Z,1011.8
2019-05-23T01:33:47.651Z,1011.7
2019-05-23T01:34:49.736Z,1011.8
2019-05-23T01:35:51.860Z,1011.7
2019-05-23T01:36:54.322Z,1011.7
2019-05-23T01:37:57.062Z,1011.7
2019-05-23T01:38:59.925Z,1011.8
2019-05-23T01:40:02.413Z,1011.7
2019-05-23T01:41:04.862Z,1011.7
2019-05-23T01:42:07.244Z,1011.7
2019-05-23T01:43:09.902Z,1011.7
2019-05-23T01:44:12.934Z,1011.7
2019-05-23T01:45:15.075Z,1011.7
2019-05-23T01:46:17.596Z,1011.8
2019-05-23T01:47:20.813Z,1011.8
2019-05-23T01:48:22.896Z,1011.8
2019-05-23T01:49:25.375Z,1011.8
2019-05-23T01:50:27.804Z,1011.7
2019-05-23T01:51:29.937Z,1011.7
2019-05-23T01:52:32.306Z,1011.8
2019-05-23T01:53:34.682Z,1011.8
2019-05-23T01:54:36.762Z,1011.7
2019-05-23T01:55:38.964Z,1011.7
2019-05-23T01:56:41.364Z,1011.7
2019-05-23T01:57:43.507Z,1011.7
2019-05-23T01:58:45.574Z,1011.7
2019-05-23T01:59:47.650Z,1011.7
2019-05-23T02:00:50.376Z,1011.7
2019-05-23T02:01:52.851Z,1011.7
2019-05-23T02:02:55.269Z,1011.7
2019-05-23T02:03:57.360Z,1011.7
2019-05-23T02:04:59.872Z,1011.6
2019-05-23T02:06:02.789Z,1011.7
2019-05-23T02:07:04.879Z,1011.7
2019-05-23T02:08:07.309Z,1011.7
2019-05-23T02:09:10.524Z,1011.7
2019-05-23T02:10:12.645Z,1011.7
2019-05-23T02:11:15.301Z,1011.6
2019-05-23T02:12:17.837Z,1011.7
2019-05-23T02:13:20.322Z,1011.7
2019-05-23T02:14:22.777Z,1011.7
2019-05-23T02:15:25.203Z,1011.6
2019-05-23T02:16:27.292Z,1011.6
2019-05-23T02:17:29.423Z,1011.6
2019-05-23T02:18:31.901Z,1011.7
2019-05-23T02:19:34.277Z,1011.7
2019-05-23T02:20:36.351Z,1011.6
2019-05-23T02:21:38.734Z,1011.6
2019-05-23T02:22:40.884Z,1011.7
2019-05-23T02:23:43.342Z,1011.7
2019-05-23T02:24:45.491Z,1011.6
2019-05-23T02:25:47.890Z,1011.6
2019-05-23T02:26:50.249Z,1011.6
2019-05-23T02:27:52.321Z,1011.6
2019-05-23T02:28:54.417Z,1011.6
2019-05-23T02:29:56.834Z,1011.6
2019-05-23T02:30:58.907Z,1011.6
2019-05-23T02:32:01.440Z,1011.6
2019-05-23T02:33:03.653Z,1011.6
2019-05-23T02:34:06.394Z,1011.6
2019-05-23T02:35:08.561Z,1011.6
2019-05-23T02:36:11.266Z,1011.6
2019-05-23T02:37:14.053Z,1011.5
2019-05-23T02:38:16.548Z,1011.5
2019-05-23T02:39:19.061Z,1011.6
2019-05-23T02:40:21.209Z,1011.5
2019-05-23T02:41:23.529Z,1011.6
2019-05-23T02:42:25.578Z,1011.5
2019-05-23T02:43:28.000Z,1011.5
2019-05-23T02:44:30.094Z,1011.5
2019-05-23T02:45:32.229Z,1011.5
2019-05-23T02:46:35.390Z,1011.5
2019-05-23T02:47:38.111Z,1011.5
2019-05-23T02:48:40.900Z,1011.5
2019-05-23T02:49:42.992Z,1011.5
2019-05-23T02:50:45.137Z,1011.5
2019-05-23T02:51:47.792Z,1011.5
2019-05-23T02:52:51.069Z,1011.5
2019-05-23T02:53:53.456Z,1011.6
2019-05-23T02:54:55.968Z,1011.6
2019-05-23T02:55:58.369Z,1011.6
2019-05-23T02:57:01.144Z,1011.6
2019-05-23T02:58:03.799Z,1011.6
2019-05-23T02:59:06.153Z,1011.6
2019-05-23T03:00:08.537Z,1011.6
2019-05-23T03:01:10.644Z,1011.6
2019-05-23T03:02:13.016Z,1011.6
2019-05-23T03:03:15.119Z,1011.6
2019-05-23T03:04:17.264Z,1011.6
2019-05-23T03:05:19.343Z,1011.6
2019-05-23T03:06:21.712Z,1011.6
2019-05-23T03:07:24.554Z,1011.5
2019-05-23T03:08:27.191Z,1011.5
2019-05-23T03:09:29.610Z,1011.5
2019-05-23T03:10:31.687Z,1011.5
2019-05-23T03:11:34.610Z,1011.5
2019-05-23T03:12:36.976Z,1011.5
2019-05-23T03:13:39.628Z,1011.5
2019-05-23T03:14:41.765Z,1011.5
2019-05-23T03:15:43.834Z,1011.5
2019-05-23T03:16:45.975Z,1011.5
2019-05-23T03:17:48.725Z,1011.5
2019-05-23T03:18:50.816Z,1011.5
2019-05-23T03:19:53.463Z,1011.5
2019-05-23T03:20:55.563Z,1011.5
2019-05-23T03:21:57.971Z,1011.5
2019-05-23T03:23:00.339Z,1011.5
2019-05-23T03:24:03.130Z,1011.4
2019-05-23T03:25:05.915Z,1011.5
2019-05-23T03:26:08.004Z,1011.5
2019-05-23T03:27:10.175Z,1011.5
2019-05-23T03:28:12.579Z,1011.4
2019-05-23T03:29:15.264Z,1011.4
2019-05-23T03:30:17.726Z,1011.4
2019-05-23T03:31:32.198Z,1011.4
2019-05-23T03:32:39.821Z,1011.4
2019-05-23T03:33:42.324Z,1011.5
2019-05-23T03:34:45.034Z,1011.4
2019-05-23T03:35:47.703Z,1011.4
2019-05-23T03:36:50.293Z,1011.5
2019-05-23T03:37:52.667Z,1011.4
2019-05-23T03:38:55.018Z,1011.5
2019-05-23T03:39:57.153Z,1011.5
2019-05-23T03:40:59.641Z,1011.4
2019-05-23T03:42:01.775Z,1011.5
2019-05-23T03:43:03.868Z,1011.5
2019-05-23T03:44:06.252Z,1011.4
2019-05-23T03:45:08.314Z,1011.5
2019-05-23T03:46:10.763Z,1011.4
2019-05-23T03:47:13.528Z,1011.4
2019-05-23T03:48:15.839Z,1011.4
2019-05-23T03:49:18.296Z,1011.5
2019-05-23T03:50:21.621Z,1011.5
2019-05-23T03:51:23.932Z,1011.5
2019-05-23T03:52:26.319Z,1011.5
2019-05-23T03:53:28.435Z,1011.5
2019-05-23T03:54:30.565Z,1011.5
2019-05-23T03:55:32.967Z,1011.5
2019-05-23T03:56:35.356Z,1011.5
2019-05-23T03:57:37.760Z,1011.5
2019-05-23T03:58:40.226Z,1011.5
2019-05-23T03:59:43.067Z,1011.5
2019-05-23T04:00:45.167Z,1011.5
2019-05-23T04:01:49.688Z,1011.5
2019-05-23T04:02:51.849Z,1011.5
2019-05-23T04:03:53.937Z,1011.5
2019-05-23T04:04:56.435Z,1011.5
2019-05-23T04:05:58.881Z,1011.5
2019-05-23T04:07:01.126Z,1011.5
2019-05-23T04:08:03.214Z,1011.4
2019-05-23T04:09:05.597Z,1011.5
2019-05-23T04:10:07.803Z,1011.5
2019-05-23T04:11:09.900Z,1011.5
2019-05-23T04:12:12.065Z,1011.5
2019-05-23T04:13:14.117Z,1011.5
2019-05-23T04:14:16.481Z,1011.5
2019-05-23T04:15:18.987Z,1011.5
2019-05-23T04:16:21.086Z,1011.5
2019-05-23T04:17:23.201Z,1011.5
2019-05-23T04:18:25.538Z,1011.5
2019-05-23T04:19:28.251Z,1011.5
2019-05-23T04:20:30.336Z,1011.5
2019-05-23T04:21:32.447Z,1011.5
2019-05-23T04:22:35.177Z,1011.5
2019-05-23T04:23:37.636Z,1011.5
2019-05-23T04:24:40.001Z,1011.5
2019-05-23T04:25:42.623Z,1011.5
2019-05-23T04:26:45.171Z,1011.6
2019-05-23T04:27:47.859Z,1011.6
2019-05-23T04:28:49.969Z,1011.6
2019-05-23T04:29:52.681Z,1011.6
2019-05-23T04:30:55.163Z,1011.6
2019-05-23T04:32:09.186Z,1011.6
2019-05-23T04:33:11.764Z,1011.6
2019-05-23T04:34:14.214Z,1011.7
2019-05-23T04:35:16.608Z,1011.6
2019-05-23T04:36:18.732Z,1011.6
2019-05-23T04:37:21.146Z,1011.6
2019-05-23T04:38:24.181Z,1011.6
2019-05-23T04:39:26.504Z,1011.6
2019-05-23T04:40:28.994Z,1011.6
2019-05-23T04:41:31.463Z,1011.6
2019-05-23T04:42:33.965Z,1011.6
2019-05-23T04:43:36.316Z,1011.5
2019-05-23T04:44:38.402Z,1011.6
2019-05-23T04:45:46.532Z,1011.6
2019-05-23T04:46:48.691Z,1011.6
2019-05-23T04:47:51.028Z,1011.6
2019-05-23T04:48:53.184Z,1011.6
2019-05-23T04:49:55.829Z,1011.6
2019-05-23T04:51:00.773Z,1011.6
2019-05-23T04:52:03.475Z,1011.6
2019-05-23T04:53:05.923Z,1011.6
2019-05-23T04:54:08.056Z,1011.7
2019-05-23T04:55:10.135Z,1011.6
2019-05-23T04:56:12.806Z,1011.6
2019-05-23T04:57:15.626Z,1011.7
2019-05-23T04:58:18.457Z,1011.6
2019-05-23T04:59:21.330Z,1011.6
2019-05-23T05:00:23.787Z,1011.6
2019-05-23T05:01:25.939Z,1011.6
2019-05-23T05:02:28.434Z,1011.6
2019-05-23T05:03:30.557Z,1011.7
2019-05-23T05:04:33.290Z,1011.7
2019-05-23T05:05:35.783Z,1011.7
2019-05-23T05:06:37.978Z,1011.7
2019-05-23T05:07:40.410Z,1011.7
2019-05-23T05:08:43.237Z,1011.7
2019-05-23T05:09:45.631Z,1011.7
2019-05-23T05:10:47.984Z,1011.7
2019-05-23T05:11:50.116Z,1011.7
2019-05-23T05:12:52.946Z,1011.7
2019-05-23T05:13:55.350Z,1011.7
2019-05-23T05:14:57.709Z,1011.7
2019-05-23T05:15:59.804Z,1011.7
2019-05-23T05:17:02.560Z,1011.7
2019-05-23T05:18:04.937Z,1011.6
2019-05-23T05:19:07.091Z,1011.7
2019-05-23T05:20:09.194Z,1011.7
2019-05-23T05:21:11.743Z,1011.7
2019-05-23T05:22:13.841Z,1011.7
2019-05-23T05:23:15.922Z,1011.7
2019-05-23T05:24:18.359Z,1011.7
2019-05-23T05:25:20.875Z,1011.7
2019-05-23T05:26:23.673Z,1011.7
2019-05-23T05:27:26.514Z,1011.7
2019-05-23T05:28:28.649Z,1011.7
2019-05-23T05:29:31.054Z,1011.7
2019-05-23T05:30:33.448Z,1011.8
2019-05-23T05:31:36.730Z,1011.7
2019-05-23T05:32:45.834Z,1011.7
2019-05-23T05:33:48.568Z,1011.7
2019-05-23T05:34:50.976Z,1011.8
2019-05-23T05:35:53.050Z,1011.8
2019-05-23T05:36:55.908Z,1011.8
2019-05-23T05:37:59.024Z,1011.8
2019-05-23T05:39:01.456Z,1011.8
2019-05-23T05:40:04.215Z,1011.9
2019-05-23T05:41:07.135Z,1011.9
2019-05-23T05:42:09.199Z,1011.9
2019-05-23T05:43:11.660Z,1011.9
2019-05-23T05:44:13.758Z,1011.9
2019-05-23T05:45:15.878Z,1011.9
2019-05-23T05:46:18.617Z,1011.9
2019-05-23T05:47:21.003Z,1011.9
2019-05-23T05:48:23.139Z,1012
2019-05-23T05:49:25.273Z,1011.9
2019-05-23T05:50:27.297Z,1012
2019-05-23T05:51:29.445Z,1012
2019-05-23T05:52:31.490Z,1012
2019-05-23T05:53:33.973Z,1012
2019-05-23T05:54:36.070Z,1012
2019-05-23T05:55:38.537Z,1012.1
2019-05-23T05:56:40.917Z,1012
2019-05-23T05:57:43.331Z,1012.1
2019-05-23T05:58:45.777Z,1012.1
2019-05-23T05:59:48.131Z,1012.1
2019-05-23T06:00:50.317Z,1012.1
2019-05-23T06:01:53.107Z,1012.1
2019-05-23T06:03:05.949Z,1012.1
2019-05-23T06:04:08.370Z,1012.1
2019-05-23T06:05:11.542Z,1012.1
2019-05-23T06:06:14.118Z,1012.1
2019-05-23T06:07:17.223Z,1012.1
2019-05-23T06:08:19.670Z,1012.1
2019-05-23T06:09:21.822Z,1012.1
2019-05-23T06:10:24.275Z,1012.2
2019-05-23T06:11:26.428Z,1012.2
2019-05-23T06:12:28.529Z,1012.1
2019-05-23T06:13:31.524Z,1012.2
2019-05-23T06:14:34.501Z,1012.1
2019-05-23T06:15:36.609Z,1012.2
2019-05-23T06:16:39.131Z,1012.2
2019-05-23T06:17:42.234Z,1012.2
2019-05-23T06:18:44.692Z,1012.2
2019-05-23T06:19:46.768Z,1012.1
2019-05-23T06:20:49.238Z,1012.2
2019-05-23T06:21:51.352Z,1012.2
2019-05-23T06:22:54.515Z,1012.2
2019-05-23T06:23:56.995Z,1012.2
2019-05-23T06:25:00.128Z,1012.2
2019-05-23T06:26:02.660Z,1012.2
2019-05-23T06:27:05.527Z,1012.2
2019-05-23T06:28:07.623Z,1012.2
2019-05-23T06:29:09.756Z,1012.1
2019-05-23T06:30:12.121Z,1012.2
2019-05-23T06:31:14.546Z,1012.2
2019-05-23T06:32:16.618Z,1012.2
2019-05-23T06:33:24.579Z,1012.2
2019-05-23T06:34:26.977Z,1012.2
2019-05-23T06:35:29.071Z,1012.2
2019-05-23T06:36:31.796Z,1012.2
2019-05-23T06:37:34.990Z,1012.2
2019-05-23T06:38:37.508Z,1012.2
2019-05-23T06:39:39.975Z,1012.2
2019-05-23T06:40:42.081Z,1012.2
2019-05-23T06:41:44.718Z,1012.2
2019-05-23T06:42:51.265Z,1012.2
2019-05-23T06:43:53.889Z,1012.3
2019-05-23T06:44:56.264Z,1012.3
2019-05-23T06:45:59.348Z,1012.3
2019-05-23T06:47:01.677Z,1012.3
2019-05-23T06:48:04.176Z,1012.3
2019-05-23T06:49:06.969Z,1012.3
2019-05-23T06:50:09.558Z,1012.3
2019-05-23T06:51:12.201Z,1012.3
2019-05-23T06:52:14.526Z,1012.2
2019-05-23T06:53:17.369Z,1012.3
2019-05-23T06:54:19.425Z,1012.3
2019-05-23T06:55:22.216Z,1012.3
2019-05-23T06:56:24.345Z,1012.3
2019-05-23T06:57:26.451Z,1012.3
2019-05-23T06:58:29.158Z,1012.4
2019-05-23T07:00:36.512Z,1012.3
2019-05-23T07:01:38.997Z,1012.4
2019-05-23T07:02:41.802Z,1012.3
2019-05-23T07:03:44.520Z,1012.3
2019-05-23T07:04:46.930Z,1012.3
2019-05-23T07:05:49.173Z,1012.3
2019-05-23T07:06:51.796Z,1012.3
2019-05-23T07:07:54.257Z,1012.3
2019-05-23T07:08:57.122Z,1012.3
2019-05-23T07:09:59.588Z,1012.3
2019-05-23T07:11:02.065Z,1012.4
2019-05-23T07:12:05.258Z,1012.4
2019-05-23T07:13:07.541Z,1012.4
2019-05-23T07:14:10.052Z,1012.4
2019-05-23T07:15:12.276Z,1012.4
2019-05-23T07:16:14.542Z,1012.4
2019-05-23T07:17:17.398Z,1012.4
2019-05-23T07:18:20.312Z,1012.4
2019-05-23T07:19:22.476Z,1012.4
2019-05-23T07:20:24.713Z,1012.4
2019-05-23T07:21:27.513Z,1012.4
2019-05-23T07:22:30.143Z,1012.3
2019-05-23T07:23:33.368Z,1012.4
2019-05-23T07:24:35.579Z,1012.3
2019-05-23T07:25:38.528Z,1012.4
2019-05-23T07:26:40.770Z,1012.4
2019-05-23T07:27:43.460Z,1012.5
2019-05-23T07:28:45.673Z,1012.4
2019-05-23T07:29:47.860Z,1012.5
2019-05-23T07:30:50.773Z,1012.5
2019-05-23T07:31:53.397Z,1012.4
2019-05-23T07:32:55.578Z,1012.4
2019-05-23T07:34:02.984Z,1012.4
2019-05-23T07:35:05.127Z,1012.5
2019-05-23T07:36:07.657Z,1012.5
2019-05-23T07:37:10.530Z,1012.5
2019-05-23T07:38:12.776Z,1012.4
2019-05-23T07:39:15.464Z,1012.4
2019-05-23T07:40:17.936Z,1012.4
2019-05-23T07:41:20.765Z,1012.4
2019-05-23T07:42:23.556Z,1012.5
2019-05-23T07:43:25.797Z,1012.4
2019-05-23T07:44:27.999Z,1012.5
2019-05-23T07:45:30.589Z,1012.5
2019-05-23T07:46:33.141Z,1012.5
2019-05-23T07:47:40.520Z,1012.5
2019-05-23T07:48:43.509Z,1012.5
2019-05-23T07:49:45.733Z,1012.5
2019-05-23T07:50:48.391Z,1012.4
2019-05-23T07:51:51.517Z,1012.5
2019-05-23T07:52:54.719Z,1012.4
2019-05-23T07:53:57.648Z,1012.5
2019-05-23T07:54:59.854Z,1012.5
2019-05-23T07:56:02.527Z,1012.5
2019-05-23T07:57:05.304Z,1012.5
2019-05-23T07:58:07.530Z,1012.5
2019-05-23T07:59:10.016Z,1012.5
2019-05-23T08:00:12.518Z,1012.5
2019-05-23T08:01:14.776Z,1012.5
2019-05-23T08:02:17.317Z,1012.5
2019-05-23T08:03:19.527Z,1012.5
2019-05-23T08:04:23.268Z,1012.5
2019-05-23T08:05:25.554Z,1012.5
2019-05-23T08:06:27.737Z,1012.5
2019-05-23T08:07:33.265Z,1012.5
2019-05-23T08:08:35.481Z,1012.5
2019-05-23T08:09:37.672Z,1012.4
2019-05-23T08:10:40.289Z,1012.5
2019-05-23T08:11:43.185Z,1012.5
2019-05-23T08:12:45.672Z,1012.5
2019-05-23T08:13:48.446Z,1012.5
2019-05-23T08:14:50.987Z,1012.5
2019-05-23T08:15:53.251Z,1012.5
2019-05-23T08:16:55.732Z,1012.5
2019-05-23T08:17:57.998Z,1012.5
2019-05-23T08:19:01.547Z,1012.4
2019-05-23T08:20:04.479Z,1012.4
2019-05-23T08:21:07.108Z,1012.4
2019-05-23T08:22:09.269Z,1012.5
2019-05-23T08:23:11.841Z,1012.4
2019-05-23T08:24:14.683Z,1012.4
2019-05-23T08:25:16.872Z,1012.4
2019-05-23T08:26:19.053Z,1012.4
2019-05-23T08:27:21.904Z,1012.4
2019-05-23T08:28:24.521Z,1012.4
2019-05-23T08:29:27.311Z,1012.4
2019-05-23T08:30:30.270Z,1012.4
2019-05-23T08:31:32.439Z,1012.4
2019-05-23T08:32:35.432Z,1012.4
2019-05-23T08:33:39.117Z,1012.4
2019-05-23T08:34:43.217Z,1012.4
2019-05-23T08:35:46.346Z,1012.4
2019-05-23T08:36:48.549Z,1012.4
2019-05-23T08:37:50.799Z,1012.4
2019-05-23T08:38:53.901Z,1012.4
2019-05-23T08:39:56.095Z,1012.4
2019-05-23T08:40:58.200Z,1012.4
2019-05-23T08:42:00.425Z,1012.4
2019-05-23T08:43:02.747Z,1012.4
2019-05-23T08:44:05.133Z,1012.4
2019-05-23T08:45:07.344Z,1012.4
2019-05-23T08:46:09.821Z,1012.4
2019-05-23T08:47:12.017Z,1012.3
2019-05-23T08:48:15.013Z,1012.4
2019-05-23T08:49:17.202Z,1012.4
2019-05-23T08:50:19.801Z,1012.4
2019-05-23T08:51:22.711Z,1012.3
2019-05-23T08:52:24.874Z,1012.4
2019-05-23T08:53:27.125Z,1012.4
2019-05-23T08:54:29.330Z,1012.4
2019-05-23T08:55:32.581Z,1012.4
2019-05-23T08:56:35.081Z,1012.5
2019-05-23T08:57:38.372Z,1012.4
2019-05-23T08:58:41.343Z,1012.4
2019-05-23T08:59:43.829Z,1012.4
2019-05-23T09:00:46.015Z,1012.4
2019-05-23T09:01:49.122Z,1012.4
2019-05-23T09:02:51.815Z,1012.4
2019-05-23T09:03:54.360Z,1012.4
2019-05-23T09:05:06.553Z,1012.3
2019-05-23T09:06:09.362Z,1012.4
2019-05-23T09:07:11.547Z,1012.4
2019-05-23T09:08:17.507Z,1012.4
2019-05-23T09:09:30.616Z,1012.4
2019-05-23T09:10:32.909Z,1012.4
2019-05-23T09:11:36.137Z,1012.4
2019-05-23T09:12:39.118Z,1012.4
2019-05-23T09:13:41.625Z,1012.4
2019-05-23T09:14:44.346Z,1012.3
2019-05-23T09:15:46.891Z,1012.4
2019-05-23T09:16:55.849Z,1012.4
2019-05-23T09:17:58.453Z,1012.4
2019-05-23T09:19:00.637Z,1012.4
2019-05-23T09:20:02.889Z,1012.4
2019-05-23T09:21:05.133Z,1012.3
2019-05-23T09:22:07.314Z,1012.3
2019-05-23T09:23:10.371Z,1012.3
2019-05-23T09:24:12.554Z,1012.3
2019-05-23T09:25:14.837Z,1012.3
2019-05-23T09:26:17.415Z,1012.3
2019-05-23T09:27:19.682Z,1012.3
2019-05-23T09:28:21.871Z,1012.3
2019-05-23T09:29:24.427Z,1012.3
2019-05-23T09:30:26.715Z,1012.2
2019-05-23T09:31:29.250Z,1012.3
2019-05-23T09:32:31.538Z,1012.3
2019-05-23T09:33:34.023Z,1012.3
2019-05-23T09:34:36.206Z,1012.3
2019-05-23T09:35:39.422Z,1012.3
2019-05-23T09:36:41.995Z,1012.3
2019-05-23T09:37:45.256Z,1012.3
2019-05-23T09:38:48.294Z,1012.3
2019-05-23T09:39:51.650Z,1012.3
2019-05-23T09:40:54.219Z,1012.3
2019-05-23T09:41:56.821Z,1012.3
2019-05-23T09:42:59.466Z,1012.3
2019-05-23T09:44:02.511Z,1012.3
2019-05-23T09:45:05.745Z,1012.2
2019-05-23T09:46:08.162Z,1012.3
2019-05-23T09:47:10.430Z,1012.3
2019-05-23T09:48:12.681Z,1012.3
2019-05-23T09:49:15.897Z,1012.3
2019-05-23T09:50:18.549Z,1012.3
2019-05-23T09:51:21.553Z,1012.3
2019-05-23T09:52:23.810Z,1012.3
2019-05-23T09:53:25.995Z,1012.3
2019-05-23T09:54:28.216Z,1012.3
2019-05-23T09:55:31.395Z,1012.3
2019-05-23T09:56:33.630Z,1012.3
2019-05-23T09:57:36.286Z,1012.3
2019-05-23T09:58:38.794Z,1012.2
2019-05-23T09:59:41.247Z,1012.3
2019-05-23T10:00:43.460Z,1012.2
2019-05-23T10:01:46.028Z,1012.2
2019-05-23T10:02:49.355Z,1012.2
2019-05-23T10:03:51.600Z,1012.3
2019-05-23T10:04:54.131Z,1012.3
2019-05-23T10:05:57.655Z,1012.3
2019-05-23T10:07:00.306Z,1012.2
2019-05-23T10:08:03.122Z,1012.2
2019-05-23T10:09:05.723Z,1012.3
2019-05-23T10:10:08.312Z,1012.2
2019-05-23T10:11:10.508Z,1012.3
2019-05-23T10:12:12.722Z,1012.3
2019-05-23T10:13:15.466Z,1012.2
2019-05-23T10:14:17.790Z,1012.3
2019-05-23T10:15:20.067Z,1012.2
2019-05-23T10:16:22.292Z,1012.2
2019-05-23T10:17:25.070Z,1012.2
2019-05-23T10:18:29.031Z,1012.2
2019-05-23T10:19:31.216Z,1012.2
2019-05-23T10:20:33.709Z,1012.3
2019-05-23T10:21:35.927Z,1012.3
2019-05-23T10:22:38.211Z,1012.2
2019-05-23T10:23:40.702Z,1012.3
2019-05-23T10:24:42.933Z,1012.2
2019-05-23T10:25:45.126Z,1012.2
2019-05-23T10:26:48.091Z,1012.3
2019-05-23T10:27:50.647Z,1012.2
2019-05-23T10:28:52.775Z,1012.2
2019-05-23T10:29:55.440Z,1012.2
2019-05-23T10:30:58.238Z,1012.2
2019-05-23T10:32:01.029Z,1012.2
2019-05-23T10:33:13.291Z,1012.2
2019-05-23T10:34:16.769Z,1012.1
2019-05-23T10:35:19.671Z,1012.1
2019-05-23T10:36:22.246Z,1012.1
2019-05-23T10:37:24.484Z,1012.1
2019-05-23T10:38:29.743Z,1012.1
2019-05-23T10:39:32.417Z,1012.1
2019-05-23T10:40:34.906Z,1012.1
2019-05-23T10:41:37.121Z,1012.1
2019-05-23T10:42:39.375Z,1012.1
2019-05-23T10:43:41.580Z,1012.1
2019-05-23T10:44:45.354Z,1012
2019-05-23T10:45:48.333Z,1012.1
2019-05-23T10:46:50.820Z,1012
2019-05-23T10:47:53.297Z,1012
2019-05-23T10:48:56.217Z,1012
2019-05-23T10:49:58.886Z,1012
2019-05-23T10:51:01.869Z,1012
2019-05-23T10:52:04.828Z,1012
2019-05-23T10:53:06.968Z,1012
2019-05-23T10:54:09.165Z,1012
2019-05-23T10:55:11.473Z,1011.9
2019-05-23T10:56:13.996Z,1012
2019-05-23T10:57:21.988Z,1012
2019-05-23T10:58:24.603Z,1012
2019-05-23T10:59:27.401Z,1012
2019-05-23T11:00:29.630Z,1011.9
2019-05-23T11:01:32.206Z,1011.9
2019-05-23T11:02:34.415Z,1011.9
2019-05-23T11:03:36.644Z,1011.9
2019-05-23T11:04:38.896Z,1011.8
2019-05-23T11:05:41.448Z,1011.9
2019-05-23T11:06:43.638Z,1011.9
2019-05-23T11:07:45.801Z,1011.9
2019-05-23T11:08:49.075Z,1011.9
2019-05-23T11:09:51.912Z,1011.9
2019-05-23T11:10:54.451Z,1011.9
2019-05-23T11:11:57.023Z,1011.8
2019-05-23T11:12:59.227Z,1011.9
2019-05-23T11:14:01.826Z,1011.9
2019-05-23T11:15:04.992Z,1011.9
2019-05-23T11:16:08.264Z,1011.9
2019-05-23T11:17:10.850Z,1011.8
2019-05-23T11:18:14.503Z,1011.9
2019-05-23T11:19:17.330Z,1011.8
2019-05-23T11:20:19.565Z,1011.8
2019-05-23T11:21:22.378Z,1011.9
2019-05-23T11:22:25.657Z,1011.8
2019-05-23T11:23:27.860Z,1011.8
2019-05-23T11:24:30.456Z,1011.8
2019-05-23T11:25:32.954Z,1011.8
2019-05-23T11:26:35.575Z,1011.8
2019-05-23T11:27:37.832Z,1011.8
2019-05-23T11:28:40.344Z,1011.8
2019-05-23T11:29:43.187Z,1011.8
2019-05-23T11:30:45.732Z,1011.7
2019-05-23T11:31:48.208Z,1011.7
2019-05-23T11:32:50.480Z,1011.7
2019-05-23T11:33:52.713Z,1011.7
2019-05-23T11:34:55.313Z,1011.7
2019-05-23T11:35:58.736Z,1011.7
2019-05-23T11:37:01.004Z,1011.7
2019-05-23T11:38:03.576Z,1011.7
2019-05-23T11:39:06.992Z,1011.7
2019-05-23T11:40:09.551Z,1011.6
2019-05-23T11:41:12.616Z,1011.7
2019-05-23T11:42:14.893Z,1011.6
2019-05-23T11:43:17.139Z,1011.6
2019-05-23T11:44:19.664Z,1011.6
2019-05-23T11:45:21.836Z,1011.7
2019-05-23T11:46:24.043Z,1011.6
2019-05-23T11:47:26.319Z,1011.7
2019-05-23T11:48:34.412Z,1011.7
2019-05-23T11:49:36.711Z,1011.7
2019-05-23T11:50:38.913Z,1011.7
2019-05-23T11:51:41.485Z,1011.7
2019-05-23T11:52:43.732Z,1011.7
2019-05-23T11:54:08.681Z,1011.7
2019-05-23T11:55:12.879Z,1011.7
2019-05-23T11:56:15.392Z,1011.7
2019-05-23T11:57:18.281Z,1011.7
2019-05-23T11:58:20.518Z,1011.7
2019-05-23T11:59:23.137Z,1011.7
2019-05-23T12:00:25.631Z,1011.7
2019-05-23T12:01:28.503Z,1011.6
2019-05-23T12:02:31.059Z,1011.6
2019-05-23T12:03:33.983Z,1011.6
2019-05-23T12:04:36.532Z,1011.6
2019-05-23T12:05:39.398Z,1011.6
2019-05-23T12:06:56.255Z,1011.6
2019-05-23T12:07:59.329Z,1011.6
2019-05-23T12:09:01.912Z,1011.6
2019-05-23T12:10:04.970Z,1011.6
2019-05-23T12:11:07.108Z,1011.5
2019-05-23T12:12:09.960Z,1011.5
2019-05-23T12:13:12.470Z,1011.5
2019-05-23T12:14:14.968Z,1011.5
2019-05-23T12:15:17.183Z,1011.5
2019-05-23T12:16:19.834Z,1011.5
2019-05-23T12:17:22.439Z,1011.5
2019-05-23T12:18:24.647Z,1011.5
2019-05-23T12:19:26.929Z,1011.5
2019-05-23T12:20:30.882Z,1011.5
2019-05-23T12:21:33.480Z,1011.5
2019-05-23T12:22:36.129Z,1011.5
2019-05-23T12:23:39.417Z,1011.5
2019-05-23T12:24:41.678Z,1011.5
2019-05-23T12:25:44.162Z,1011.5
2019-05-23T12:26:46.468Z,1011.4
2019-05-23T12:27:49.330Z,1011.5
2019-05-23T12:28:52.588Z,1011.5
2019-05-23T12:29:54.987Z,1011.5
2019-05-23T12:30:57.832Z,1011.5
2019-05-23T12:32:00.957Z,1011.5
2019-05-23T12:33:03.871Z,1011.4
2019-05-23T12:34:07.296Z,1011.4
2019-05-23T12:35:12.575Z,1011.4
2019-05-23T12:36:15.756Z,1011.4
2019-05-23T12:37:20.952Z,1011.5
2019-05-23T12:38:23.787Z,1011.4
2019-05-23T12:39:26.633Z,1011.4
2019-05-23T12:40:29.970Z,1011.4
2019-05-23T12:41:32.467Z,1011.4
2019-05-23T12:42:34.703Z,1011.3
2019-05-23T12:43:37.005Z,1011.3
2019-05-23T12:44:39.935Z,1011.4
2019-05-23T12:45:42.912Z,1011.3
2019-05-23T12:46:45.188Z,1011.3
2019-05-23T12:47:48.663Z,1011.3
2019-05-23T12:48:51.173Z,1011.3
2019-05-23T12:49:53.789Z,1011.3
2019-05-23T12:50:56.330Z,1011.3
2019-05-23T12:51:58.957Z,1011.2
2019-05-23T12:53:01.182Z,1011.3
2019-05-23T12:54:04.142Z,1011.3
2019-05-23T12:55:07.936Z,1011.3
2019-05-23T12:56:10.884Z,1011.3
2019-05-23T12:57:15.047Z,1011.2
2019-05-23T12:58:17.852Z,1011.3
2019-05-23T12:59:21.234Z,1011.2
2019-05-23T13:00:23.482Z,1011.3
2019-05-23T13:01:26.245Z,1011.2
2019-05-23T13:02:28.871Z,1011.2
2019-05-23T13:03:32.368Z,1011.2
2019-05-23T13:04:34.682Z,1011.2